Time;durP1;ratioP1;P1;durP2;ratioP2;P2;SDS_P1;SDS_P2;PMS_P1;PMS_P2;Temp;Humidity;BMP_temperature;BMP_pressure;BME280_temperature;BME280_humidity;BME280_pressure;Samples;Min_cycle;Max_cycle;Signal;HPM_P1;HPM_P2
2022/07/07 00:01:58;;;;;;;2.80;2.53;;;13.60;89.00;;;;;;4988486;28;20267;-59
2022/07/07 00:04:24;;;;;;;5.20;2.43;;;13.50;89.50;;;;;;4983596;28;20197;-59
2022/07/07 00:06:50;;;;;;;3.90;2.83;;;13.50;90.10;;;;;;4987793;28;20392;-58
2022/07/07 00:09:15;;;;;;;7.63;2.60;;;13.50;91.00;;;;;;4987579;28;20836;-59
2022/07/07 00:11:41;;;;;;;5.47;2.53;;;13.40;91.50;;;;;;4988859;28;20173;-59
2022/07/07 00:14:08;;;;;;;2.80;2.17;;;13.40;91.80;;;;;;4987819;28;20197;-59
2022/07/07 00:16:35;;;;;;;2.70;2.50;;;13.40;91.90;;;;;;4985999;28;20204;-59
2022/07/07 00:19:01;;;;;;;3.10;2.80;;;13.40;91.70;;;;;;4980533;28;20424;-59
2022/07/07 00:21:27;;;;;;;5.10;2.73;;;13.40;91.70;;;;;;4987407;28;20968;-58
2022/07/07 00:23:53;;;;;;;3.73;2.40;;;13.30;91.90;;;;;;4986946;28;20209;-59
2022/07/07 00:26:19;;;;;;;2.97;2.70;;;13.20;92.00;;;;;;4988140;28;20440;-59
2022/07/07 00:28:44;;;;;;;3.10;2.60;;;13.20;92.30;;;;;;4989298;28;20443;-58
2022/07/07 00:31:10;;;;;;;3.00;2.67;;;13.20;92.40;;;;;;4987538;28;20219;-59
2022/07/07 00:33:36;;;;;;;3.27;2.83;;;13.10;92.50;;;;;;4986640;28;20200;-59
2022/07/07 00:36:01;;;;;;;3.70;2.50;;;13.10;92.60;;;;;;4985461;28;20191;-59
2022/07/07 00:38:28;;;;;;;3.70;2.80;;;13.10;93.30;;;;;;4990412;28;20267;-59
2022/07/07 00:40:54;;;;;;;2.70;2.50;;;13.10;93.50;;;;;;4987474;28;20281;-59
2022/07/07 00:43:20;;;;;;;5.00;2.77;;;13.10;93.50;;;;;;4989021;28;20992;-59
2022/07/07 00:45:50;;;;;;;3.27;2.67;;;13.10;93.70;;;;;;4979706;28;20503;-59
2022/07/07 00:48:18;;;;;;;3.90;2.50;;;13.00;94.10;;;;;;4989530;28;20774;-58
2022/07/07 00:50:45;;;;;;;2.60;2.40;;;13.00;93.90;;;;;;4981521;28;21103;-59
2022/07/07 00:53:11;;;;;;;3.93;3.03;;;13.00;94.00;;;;;;4985614;28;20460;-59
2022/07/07 00:55:38;;;;;;;3.40;3.07;;;12.90;93.80;;;;;;4984371;28;20543;-59
2022/07/07 00:58:04;;;;;;;4.20;2.80;;;12.90;93.50;;;;;;4985614;28;20192;-59
2022/07/07 01:00:30;;;;;;;3.30;3.00;;;12.80;93.90;;;;;;4985302;28;20432;-58
2022/07/07 01:02:56;;;;;;;3.53;3.07;;;12.80;93.70;;;;;;4984886;28;20459;-59
2022/07/07 01:05:23;;;;;;;3.07;2.60;;;12.70;94.00;;;;;;4985905;28;20432;-59
2022/07/07 01:07:51;;;;;;;5.73;2.77;;;12.70;94.40;;;;;;4987107;28;20511;-59
2022/07/07 01:10:17;;;;;;;4.77;3.43;;;12.60;94.40;;;;;;4980365;28;20431;-58
2022/07/07 01:12:43;;;;;;;4.40;3.03;;;12.50;94.70;;;;;;4980769;28;20435;-59
2022/07/07 01:15:10;;;;;;;4.50;2.77;;;12.50;95.10;;;;;;4985051;28;20428;-59
2022/07/07 01:17:36;;;;;;;4.70;3.10;;;12.40;95.60;;;;;;4989657;28;20637;-59
2022/07/07 01:20:04;;;;;;;5.27;2.83;;;12.40;95.60;;;;;;4981293;28;20937;-59
2022/07/07 01:22:36;;;;;;;4.40;2.87;;;12.30;95.50;;;;;;4980466;28;20564;-59
2022/07/07 01:25:02;;;;;;;5.90;2.90;;;12.30;95.70;;;;;;4982263;28;20539;-59
2022/07/07 01:27:28;;;;;;;4.43;3.10;;;12.20;95.80;;;;;;4978605;28;20434;-59
2022/07/07 01:29:56;;;;;;;3.30;3.00;;;12.20;96.10;;;;;;4982387;28;20432;-57
2022/07/07 01:32:23;;;;;;;3.13;2.83;;;12.20;96.60;;;;;;4986921;28;20564;-58
2022/07/07 01:34:49;;;;;;;5.70;3.20;;;12.20;96.90;;;;;;4980864;28;20483;-58
2022/07/07 01:37:16;;;;;;;2.97;2.60;;;12.10;97.00;;;;;;4983444;28;20519;-59
2022/07/07 01:39:42;;;;;;;5.50;3.23;;;12.10;97.20;;;;;;4986688;28;20436;-59
2022/07/07 01:42:09;;;;;;;4.57;2.80;;;12.10;97.30;;;;;;4984596;28;20556;-58
2022/07/07 01:44:37;;;;;;;4.87;3.50;;;12.10;97.50;;;;;;4982642;28;20456;-59
2022/07/07 01:47:03;;;;;;;4.83;3.10;;;12.10;97.80;;;;;;4981850;28;20507;-59
2022/07/07 01:49:30;;;;;;;3.17;2.67;;;12.10;97.70;;;;;;4988564;28;20436;-58
2022/07/07 01:51:57;;;;;;;5.83;2.77;;;12.10;97.60;;;;;;4979185;28;20432;-59
2022/07/07 01:54:22;;;;;;;5.27;3.67;;;12.10;97.60;;;;;;4984714;28;20484;-59
2022/07/07 01:56:48;;;;;;;11.30;4.17;;;12.10;97.60;;;;;;4983138;28;20471;-58
2022/07/07 01:59:14;;;;;;;10.43;4.87;;;12.10;97.70;;;;;;4981197;28;20644;-60
2022/07/07 02:01:40;;;;;;;10.73;3.50;;;12.10;97.80;;;;;;4986512;28;20173;-59
2022/07/07 02:04:05;;;;;;;12.40;3.60;;;12.10;97.70;;;;;;4983022;28;20239;-58
2022/07/07 02:06:32;;;;;;;4.10;3.00;;;12.10;97.70;;;;;;4984928;28;20590;-58
2022/07/07 02:08:58;;;;;;;6.20;3.20;;;12.10;97.90;;;;;;4977470;28;20185;-58
2022/07/07 02:11:24;;;;;;;7.97;3.60;;;12.10;97.40;;;;;;4978458;28;20490;-58
2022/07/07 02:13:51;;;;;;;4.37;3.50;;;12.00;97.20;;;;;;4986807;28;20444;-59
2022/07/07 02:16:19;;;;;;;4.50;3.20;;;12.00;97.60;;;;;;4980959;28;20421;-58
2022/07/07 02:18:46;;;;;;;6.27;3.50;;;12.00;97.60;;;;;;4983641;28;20527;-58
2022/07/07 02:21:13;;;;;;;5.10;3.17;;;12.00;97.60;;;;;;4982661;28;20894;-59
2022/07/07 02:23:40;;;;;;;6.90;3.03;;;11.90;98.10;;;;;;4981833;28;20550;-58
2022/07/07 02:26:06;;;;;;;3.33;2.83;;;11.90;97.90;;;;;;4987702;28;20427;-58
2022/07/07 02:28:32;;;;;;;4.57;3.50;;;11.80;98.10;;;;;;4983386;28;20568;-59
2022/07/07 02:30:59;;;;;;;7.77;3.57;;;11.80;98.60;;;;;;4982575;28;20544;-59
2022/07/07 02:33:25;;;;;;;3.30;3.00;;;11.70;99.00;;;;;;4984008;28;20467;-59
2022/07/07 02:35:53;;;;;;;7.47;3.40;;;11.70;99.00;;;;;;4991041;28;20443;-59
2022/07/07 02:38:19;;;;;;;5.17;3.43;;;11.70;99.10;;;;;;4983089;28;20658;-59
2022/07/07 02:40:45;;;;;;;5.67;3.50;;;11.60;98.90;;;;;;4991167;28;20423;-59
2022/07/07 02:43:14;;;;;;;4.33;3.20;;;11.60;99.60;;;;;;4989676;28;20468;-59
2022/07/07 02:45:43;;;;;;;5.20;3.47;;;11.60;99.40;;;;;;4988046;28;20185;-59
2022/07/07 02:48:10;;;;;;;9.10;3.83;;;11.50;99.70;;;;;;4988747;28;20436;-58
2022/07/07 02:50:37;;;;;;;3.83;3.13;;;11.50;99.90;;;;;;4987853;28;20901;-59
2022/07/07 02:53:03;;;;;;;4.83;3.37;;;11.40;99.90;;;;;;4984858;28;21016;-59
2022/07/07 02:55:30;;;;;;;3.50;3.20;;;11.40;99.90;;;;;;4989401;28;20424;-59
2022/07/07 02:58:00;;;;;;;3.23;2.80;;;11.40;99.90;;;;;;4988545;28;20436;-59
2022/07/07 03:00:26;;;;;;;7.57;4.23;;;11.40;99.90;;;;;;4991111;28;22249;-58
2022/07/07 03:02:53;;;;;;;6.67;3.80;;;11.40;99.90;;;;;;4982893;28;20557;-59
2022/07/07 03:05:19;;;;;;;3.80;3.40;;;11.40;99.90;;;;;;4991438;28;20424;-58
2022/07/07 03:07:45;;;;;;;5.10;3.70;;;11.40;99.90;;;;;;4987955;28;20603;-59
2022/07/07 03:10:10;;;;;;;4.53;4.13;;;11.40;99.90;;;;;;4988275;28;20530;-58
2022/07/07 03:12:36;;;;;;;4.33;3.83;;;11.40;99.90;;;;;;4988554;28;20661;-59
2022/07/07 03:15:01;;;;;;;4.60;3.27;;;11.40;99.90;;;;;;4987421;28;20765;-58
2022/07/07 03:17:27;;;;;;;3.23;2.93;;;11.30;99.90;;;;;;4985493;28;20186;-58
2022/07/07 03:19:53;;;;;;;9.73;3.87;;;11.30;99.90;;;;;;4983052;28;20184;-59
2022/07/07 03:22:19;;;;;;;5.00;3.23;;;11.30;99.90;;;;;;4988794;28;20205;-59
2022/07/07 03:24:44;;;;;;;8.63;3.77;;;11.30;99.90;;;;;;4984731;28;20220;-58
2022/07/07 03:27:10;;;;;;;5.33;3.53;;;11.20;99.90;;;;;;4985271;28;20929;-58
2022/07/07 03:29:36;;;;;;;4.07;3.00;;;11.20;99.90;;;;;;4990887;28;20184;-58
2022/07/07 03:32:02;;;;;;;4.30;3.17;;;11.20;99.90;;;;;;4990712;28;20289;-58
2022/07/07 03:34:28;;;;;;;7.10;3.70;;;11.10;99.90;;;;;;4984696;28;20202;-58
2022/07/07 03:36:53;;;;;;;7.43;3.83;;;11.10;99.90;;;;;;4991144;28;20486;-58
2022/07/07 03:39:19;;;;;;;4.30;3.80;;;11.10;99.90;;;;;;4985961;28;20188;-59
2022/07/07 03:41:45;;;;;;;3.67;3.37;;;11.00;99.90;;;;;;4984283;28;20182;-58
2022/07/07 03:44:10;;;;;;;3.40;3.10;;;11.10;99.90;;;;;;4981325;28;20197;-60
2022/07/07 03:46:36;;;;;;;4.93;3.40;;;11.00;99.90;;;;;;4988477;28;20182;-59
2022/07/07 03:49:02;;;;;;;6.83;4.00;;;11.10;99.90;;;;;;4987951;28;20264;-58
2022/07/07 03:51:28;;;;;;;4.47;3.13;;;11.10;99.90;;;;;;4991980;28;20256;-58
2022/07/07 03:53:53;;;;;;;5.90;3.70;;;11.10;99.90;;;;;;4979601;28;20593;-57
2022/07/07 03:56:19;;;;;;;5.87;3.70;;;11.00;99.90;;;;;;4972722;28;20228;-56
2022/07/07 03:58:45;;;;;;;4.33;3.57;;;11.00;99.90;;;;;;4978538;28;20200;-57
2022/07/07 04:01:10;;;;;;;4.47;3.73;;;11.10;99.90;;;;;;4971057;28;20236;-56
2022/07/07 04:03:37;;;;;;;7.10;3.70;;;11.10;99.90;;;;;;4978872;28;20216;-56
2022/07/07 04:06:04;;;;;;;6.67;3.43;;;11.10;99.90;;;;;;4980906;28;20551;-56
2022/07/07 04:08:30;;;;;;;5.73;3.00;;;11.10;99.90;;;;;;4976816;28;20523;-56
2022/07/07 04:10:55;;;;;;;4.20;3.40;;;11.10;99.90;;;;;;4976743;28;20491;-56
2022/07/07 04:13:21;;;;;;;8.03;3.27;;;11.00;99.90;;;;;;4976007;28;20228;-58
2022/07/07 04:15:47;;;;;;;3.27;2.97;;;11.00;99.90;;;;;;4971329;28;20177;-60
2022/07/07 04:18:13;;;;;;;4.60;3.40;;;11.00;99.90;;;;;;4979521;28;20736;-58
2022/07/07 04:20:38;;;;;;;4.90;3.33;;;10.90;99.90;;;;;;4971568;28;20204;-58
2022/07/07 04:23:04;;;;;;;8.30;3.33;;;10.90;99.90;;;;;;4977569;28;22123;-59
2022/07/07 04:25:30;;;;;;;5.70;3.70;;;11.00;99.90;;;;;;4983974;28;20696;-59
2022/07/07 04:27:55;;;;;;;6.20;4.07;;;11.00;99.90;;;;;;4982889;28;20192;-59
2022/07/07 04:30:21;;;;;;;7.77;3.50;;;11.00;99.90;;;;;;4977762;28;20182;-58
2022/07/07 04:32:46;;;;;;;7.20;4.00;;;11.00;99.90;;;;;;4982077;28;20304;-58
2022/07/07 04:35:12;;;;;;;6.20;4.10;;;11.00;99.90;;;;;;4979117;28;20554;-60
2022/07/07 04:37:38;;;;;;;4.90;4.10;;;11.10;99.90;;;;;;4971880;28;20181;-60
2022/07/07 04:40:04;;;;;;;4.63;4.07;;;11.10;99.90;;;;;;4985084;28;20185;-59
2022/07/07 04:42:30;;;;;;;8.63;3.73;;;11.20;99.90;;;;;;4985016;28;20208;-59
2022/07/07 04:44:56;;;;;;;5.27;3.90;;;11.20;99.90;;;;;;4978393;28;20517;-60
2022/07/07 04:47:21;;;;;;;7.60;4.10;;;11.20;99.90;;;;;;4987499;28;20247;-60
2022/07/07 04:49:47;;;;;;;6.80;4.30;;;11.30;99.90;;;;;;4982538;28;20540;-59
2022/07/07 04:52:13;;;;;;;4.27;3.60;;;11.40;99.90;;;;;;4982813;28;20741;-59
2022/07/07 04:54:39;;;;;;;7.20;3.60;;;11.50;99.90;;;;;;4973468;28;20197;-59
2022/07/07 04:57:05;;;;;;;6.70;4.40;;;11.50;99.90;;;;;;4977693;28;21156;-59
2022/07/07 04:59:30;;;;;;;5.47;4.37;;;11.60;99.90;;;;;;4978309;28;20654;-59
2022/07/07 05:01:56;;;;;;;7.97;4.30;;;11.50;99.90;;;;;;4980386;28;20215;-60
2022/07/07 05:04:22;;;;;;;5.43;4.27;;;11.50;99.90;;;;;;4985242;28;20548;-59
2022/07/07 05:06:47;;;;;;;8.77;4.33;;;11.50;99.90;;;;;;4982532;28;20178;-59
2022/07/07 05:09:13;;;;;;;5.57;4.43;;;11.50;99.90;;;;;;4984173;28;20176;-59
2022/07/07 05:11:39;;;;;;;11.80;5.00;;;11.50;99.90;;;;;;4977811;28;20177;-59
2022/07/07 05:14:04;;;;;;;9.07;4.70;;;11.50;99.90;;;;;;4978481;28;20200;-60
2022/07/07 05:16:30;;;;;;;10.10;5.00;;;11.60;99.90;;;;;;4978175;28;20188;-60
2022/07/07 05:18:56;;;;;;;8.80;3.80;;;11.70;99.90;;;;;;4978621;28;20181;-61
2022/07/07 05:21:22;;;;;;;9.87;5.20;;;11.80;99.90;;;;;;4979334;28;20605;-59
2022/07/07 05:23:48;;;;;;;6.23;4.10;;;11.90;99.90;;;;;;4977783;28;20275;-61
2022/07/07 05:26:14;;;;;;;13.53;4.50;;;12.10;99.90;;;;;;4976681;28;20456;-59
2022/07/07 05:28:42;;;;;;;5.53;4.80;;;12.20;99.90;;;;;;4977297;28;20451;-59
2022/07/07 05:31:12;;;;;;;7.20;4.33;;;12.40;99.90;;;;;;4975738;28;20510;-59
2022/07/07 05:33:38;;;;;;;7.40;4.13;;;12.50;99.90;;;;;;4984380;28;20506;-59
2022/07/07 05:36:05;;;;;;;5.90;4.90;;;12.60;99.90;;;;;;4986417;28;20440;-59
2022/07/07 05:38:31;;;;;;;8.30;3.90;;;12.70;99.90;;;;;;4988404;28;20839;-60
2022/07/07 05:40:57;;;;;;;5.30;4.70;;;12.90;99.90;;;;;;4984106;28;20418;-60
2022/07/07 05:43:23;;;;;;;11.70;4.10;;;13.00;99.40;;;;;;4983928;28;20503;-59
2022/07/07 05:45:49;;;;;;;9.50;4.23;;;13.10;98.80;;;;;;4983708;28;20452;-60
2022/07/07 05:48:15;;;;;;;7.57;4.20;;;13.20;98.20;;;;;;4985956;28;20678;-59
2022/07/07 05:50:40;;;;;;;8.50;4.43;;;13.20;97.60;;;;;;4984019;28;21998;-59
2022/07/07 05:53:06;;;;;;;9.20;4.63;;;13.30;96.60;;;;;;4982601;28;20197;-60
2022/07/07 05:55:32;;;;;;;7.20;4.10;;;13.40;96.20;;;;;;4978234;28;20177;-63
2022/07/07 05:57:58;;;;;;;6.97;4.30;;;13.40;96.50;;;;;;4982112;28;20181;-60
2022/07/07 06:00:24;;;;;;;4.27;3.67;;;13.50;96.60;;;;;;4980892;28;20943;-60
2022/07/07 06:02:50;;;;;;;7.83;4.60;;;13.60;96.70;;;;;;4977419;28;20530;-60
2022/07/07 06:05:16;;;;;;;10.53;4.20;;;13.70;96.70;;;;;;4977261;28;20833;-60
2022/07/07 06:07:42;;;;;;;4.33;3.93;;;13.80;97.10;;;;;;4977111;28;22008;-59
2022/07/07 06:10:10;;;;;;;5.73;3.60;;;13.90;95.80;;;;;;4980101;28;20532;-60
2022/07/07 06:12:36;;;;;;;7.77;3.80;;;13.90;95.10;;;;;;4980900;28;20177;-59
2022/07/07 06:15:01;;;;;;;6.93;3.87;;;14.00;94.30;;;;;;4980328;28;20824;-59
2022/07/07 06:17:27;;;;;;;10.97;4.70;;;14.10;93.70;;;;;;4969579;28;20662;-60
2022/07/07 06:19:53;;;;;;;4.90;4.17;;;14.20;93.90;;;;;;4972014;28;20193;-60
2022/07/07 06:22:18;;;;;;;9.90;4.13;;;14.30;94.50;;;;;;4975481;28;20280;-60
2022/07/07 06:24:44;;;;;;;6.07;3.73;;;14.40;94.10;;;;;;4973332;28;20284;-60
2022/07/07 06:27:10;;;;;;;8.33;3.47;;;14.60;94.40;;;;;;4976148;28;20212;-61
2022/07/07 06:29:35;;;;;;;7.20;4.03;;;14.70;94.50;;;;;;4981737;28;20181;-60
2022/07/07 06:32:01;;;;;;;9.70;4.33;;;14.80;94.00;;;;;;4979240;28;20251;-60
2022/07/07 06:34:26;;;;;;;13.00;4.37;;;14.90;93.50;;;;;;4979496;28;20201;-59
2022/07/07 06:36:52;;;;;;;11.23;4.60;;;15.00;92.50;;;;;;4976395;28;20228;-59
2022/07/07 06:39:17;;;;;;;15.87;4.40;;;15.20;92.80;;;;;;4974156;28;20169;-60
2022/07/07 06:41:43;;;;;;;10.80;4.23;;;15.30;92.00;;;;;;4979558;28;21673;-60
2022/07/07 06:44:09;;;;;;;10.13;3.83;;;15.50;90.90;;;;;;4982269;28;20204;-60
2022/07/07 06:46:35;;;;;;;11.13;3.60;;;15.60;87.80;;;;;;4981293;28;20172;-59
2022/07/07 06:49:01;;;;;;;7.33;3.90;;;15.70;85.20;;;;;;4987141;28;20405;-59
2022/07/07 06:51:27;;;;;;;5.30;3.73;;;15.80;85.20;;;;;;4982026;28;20678;-60
2022/07/07 06:53:52;;;;;;;11.00;3.87;;;16.00;87.70;;;;;;4982133;28;20711;-60
2022/07/07 06:56:18;;;;;;;10.37;3.13;;;16.10;88.90;;;;;;4980318;28;20437;-59
2022/07/07 06:58:44;;;;;;;11.33;3.40;;;16.30;85.10;;;;;;4985193;28;20181;-60
2022/07/07 07:01:10;;;;;;;8.90;3.47;;;16.50;84.90;;;;;;4979108;28;21030;-60
2022/07/07 07:03:36;;;;;;;6.23;2.73;;;16.60;85.10;;;;;;4976065;28;20666;-60
2022/07/07 07:06:02;;;;;;;5.30;2.93;;;16.80;84.90;;;;;;4973663;28;20443;-60
2022/07/07 07:08:27;;;;;;;10.97;2.60;;;16.90;84.50;;;;;;4978549;28;20178;-60
2022/07/07 07:10:53;;;;;;;6.30;3.47;;;17.10;81.30;;;;;;4975267;28;21195;-60
2022/07/07 07:13:19;;;;;;;5.23;2.83;;;17.30;78.60;;;;;;4977803;28;20201;-60
2022/07/07 07:15:45;;;;;;;5.77;2.87;;;17.40;75.60;;;;;;4974632;28;20685;-60
2022/07/07 07:18:11;;;;;;;6.33;2.50;;;17.50;74.20;;;;;;4983994;28;20690;-64
2022/07/07 07:20:37;;;;;;;6.03;2.53;;;17.70;72.30;;;;;;4988536;28;20430;-60
2022/07/07 07:23:03;;;;;;;3.20;2.40;;;17.80;67.80;;;;;;4983391;28;20842;-59
2022/07/07 07:25:29;;;;;;;3.47;2.10;;;17.90;66.40;;;;;;4979826;28;20170;-60
2022/07/07 07:27:54;;;;;;;3.27;2.70;;;18.00;64.70;;;;;;4978368;28;20257;-60
2022/07/07 07:30:20;;;;;;;5.67;2.30;;;18.00;60.90;;;;;;4986076;28;20180;-60
2022/07/07 07:32:46;;;;;;;7.57;2.70;;;18.00;58.90;;;;;;4980188;28;20670;-60
2022/07/07 07:35:11;;;;;;;2.80;2.07;;;17.90;59.30;;;;;;4981884;28;20228;-60
2022/07/07 07:37:39;;;;;;;4.80;2.93;;;18.00;59.50;;;;;;4978654;28;20192;-60
2022/07/07 07:40:10;;;;;;;3.23;2.40;;;18.10;60.40;;;;;;4985340;28;20189;-61
2022/07/07 07:42:37;;;;;;;4.00;2.70;;;18.10;58.80;;;;;;4983420;28;20447;-60
2022/07/07 07:45:09;;;;;;;8.07;2.37;;;18.20;58.80;;;;;;4988825;28;20837;-60
2022/07/07 07:47:39;;;;;;;3.73;2.20;;;18.30;58.80;;;;;;4983796;28;20562;-60
2022/07/07 07:50:05;;;;;;;4.00;2.43;;;18.30;57.50;;;;;;4983409;28;21559;-60
2022/07/07 07:52:31;;;;;;;4.83;2.30;;;18.40;58.10;;;;;;4987155;28;20444;-60
2022/07/07 07:54:57;;;;;;;8.40;2.47;;;18.40;58.00;;;;;;4976881;28;20473;-60
2022/07/07 07:57:22;;;;;;;2.60;2.33;;;18.40;58.20;;;;;;4973576;28;20638;-60
2022/07/07 07:59:48;;;;;;;4.17;2.50;;;18.40;57.10;;;;;;4977615;28;20178;-61
2022/07/07 08:02:13;;;;;;;5.13;2.00;;;18.50;58.80;;;;;;4981669;28;20297;-59
2022/07/07 08:04:39;;;;;;;3.20;2.20;;;18.40;60.00;;;;;;4981479;28;20221;-59
2022/07/07 08:07:05;;;;;;;4.80;2.60;;;18.50;59.90;;;;;;4983607;28;20170;-59
2022/07/07 08:09:30;;;;;;;6.73;2.60;;;18.40;58.20;;;;;;4988381;28;20180;-60
2022/07/07 08:11:56;;;;;;;2.80;2.50;;;18.40;59.50;;;;;;4982004;28;20180;-59
2022/07/07 08:14:22;;;;;;;3.73;2.10;;;18.40;59.90;;;;;;4974803;28;20200;-60
2022/07/07 08:16:48;;;;;;;2.53;2.30;;;18.40;59.10;;;;;;4968549;28;20185;-60
2022/07/07 08:19:19;;;;;;;4.07;2.10;;;18.40;59.50;;;;;;4976405;28;20181;-60
2022/07/07 08:21:48;;;;;;;2.20;2.00;;;18.40;58.70;;;;;;4984923;28;20942;-59
2022/07/07 08:24:14;;;;;;;4.80;2.30;;;18.40;58.40;;;;;;4978617;28;20498;-59
2022/07/07 08:26:40;;;;;;;4.63;2.60;;;18.50;59.70;;;;;;4978115;28;20431;-60
2022/07/07 08:29:06;;;;;;;10.53;2.57;;;18.50;58.90;;;;;;4983978;28;20436;-60
2022/07/07 08:31:32;;;;;;;3.20;2.40;;;18.60;59.80;;;;;;4984199;28;20193;-60
2022/07/07 08:33:57;;;;;;;4.50;2.43;;;18.70;57.70;;;;;;4983364;28;20455;-59
2022/07/07 08:36:23;;;;;;;5.00;2.77;;;18.80;57.30;;;;;;4982172;28;20174;-60
2022/07/07 08:38:49;;;;;;;8.43;2.40;;;18.80;56.60;;;;;;4983737;28;20181;-59
2022/07/07 08:41:16;;;;;;;4.47;2.37;;;18.90;56.70;;;;;;4973280;28;20475;-60
2022/07/07 08:43:42;;;;;;;6.33;2.70;;;18.90;57.00;;;;;;4978384;28;20209;-59
2022/07/07 08:46:09;;;;;;;5.43;2.30;;;18.90;56.20;;;;;;4980125;28;21281;-59
2022/07/07 08:48:35;;;;;;;7.53;2.60;;;18.80;57.00;;;;;;4977474;28;20436;-59
2022/07/07 08:51:04;;;;;;;2.83;2.30;;;18.90;57.10;;;;;;4981924;28;21264;-59
2022/07/07 08:53:35;;;;;;;4.03;2.50;;;18.90;57.40;;;;;;4982228;28;20453;-60
2022/07/07 08:56:07;;;;;;;3.63;2.40;;;19.00;57.90;;;;;;4978296;28;20963;-59
2022/07/07 08:58:35;;;;;;;10.50;2.40;;;19.10;57.90;;;;;;4978420;28;21208;-59
2022/07/07 09:01:02;;;;;;;4.10;2.70;;;19.10;57.00;;;;;;4980471;28;20945;-59
2022/07/07 09:03:28;;;;;;;3.10;2.30;;;19.10;56.50;;;;;;4985667;28;20554;-59
2022/07/07 09:05:58;;;;;;;8.03;2.30;;;19.10;56.40;;;;;;4976887;28;20793;-60
2022/07/07 09:08:26;;;;;;;5.03;2.70;;;19.10;57.10;;;;;;4982265;28;20911;-60
2022/07/07 09:10:53;;;;;;;4.23;2.43;;;19.20;56.50;;;;;;4975044;28;20412;-60
2022/07/07 09:13:25;;;;;;;3.70;2.20;;;19.20;57.40;;;;;;4983535;28;20451;-58
2022/07/07 09:15:53;;;;;;;4.60;2.83;;;19.30;57.50;;;;;;4976933;28;20512;-62
2022/07/07 09:18:31;;;;;;;3.30;2.30;;;19.40;56.60;;;;;;4976768;28;20436;-61
2022/07/07 09:20:58;;;;;;;3.20;1.97;;;19.40;56.30;;;;;;4978630;28;20444;-61
2022/07/07 09:23:24;;;;;;;10.00;2.80;;;19.30;55.70;;;;;;4969436;28;20633;-61
2022/07/07 09:25:49;;;;;;;5.07;2.13;;;19.30;56.80;;;;;;4971655;28;20436;-60
2022/07/07 09:28:15;;;;;;;3.43;2.43;;;19.30;57.60;;;;;;4971275;28;20799;-59
2022/07/07 09:30:42;;;;;;;2.70;2.50;;;19.30;58.30;;;;;;4971584;28;20181;-60
2022/07/07 09:33:11;;;;;;;3.23;2.10;;;19.20;57.60;;;;;;4967662;28;20208;-57
2022/07/07 09:38:24;;;;;;;3.40;2.60;;;19.10;59.10;;;;;;4967649;28;20460;-60
2022/07/07 09:40:49;;;;;;;2.63;2.10;;;19.00;59.30;;;;;;4971737;28;20849;-60
2022/07/07 09:43:15;;;;;;;2.60;2.40;;;19.00;59.90;;;;;;4968036;28;20475;-60
2022/07/07 09:45:41;;;;;;;6.27;2.67;;;19.00;60.90;;;;;;4970697;28;20568;-61
2022/07/07 09:48:09;;;;;;;10.20;2.50;;;19.10;58.90;;;;;;4976062;28;20188;-60
2022/07/07 09:50:35;;;;;;;8.33;2.47;;;18.90;59.80;;;;;;4969755;28;20815;-60
2022/07/07 09:53:07;;;;;;;4.93;2.80;;;18.90;60.60;;;;;;4967390;28;20443;-59
2022/07/07 09:55:33;;;;;;;2.30;2.20;;;18.80;59.90;;;;;;4974649;28;20190;-58
2022/07/07 09:57:58;;;;;;;5.00;2.80;;;18.80;59.50;;;;;;4969269;28;20555;-59
2022/07/07 10:00:24;;;;;;;5.50;2.63;;;18.80;61.00;;;;;;4970864;28;20268;-60
2022/07/07 10:02:51;;;;;;;3.53;2.63;;;18.80;63.70;;;;;;4969386;28;20284;-64
2022/07/07 10:05:18;;;;;;;12.40;2.80;;;18.80;62.40;;;;;;4977753;28;20174;-66
2022/07/07 10:07:48;;;;;;;4.50;2.60;;;18.90;62.60;;;;;;4974401;28;20438;-63
2022/07/07 10:10:17;;;;;;;4.37;2.23;;;19.10;63.10;;;;;;4975488;28;20428;-63
2022/07/07 10:12:46;;;;;;;2.80;2.30;;;19.20;64.70;;;;;;4972962;28;20432;-59
2022/07/07 10:15:13;;;;;;;4.87;2.70;;;19.50;63.40;;;;;;4976252;28;20530;-60
2022/07/07 10:17:40;;;;;;;4.50;2.37;;;19.70;63.10;;;;;;4971006;28;21087;-61
2022/07/07 10:20:07;;;;;;;3.60;1.87;;;19.80;59.00;;;;;;4972138;28;20429;-60
2022/07/07 10:22:34;;;;;;;4.30;2.60;;;19.80;58.00;;;;;;4970535;28;20448;-60
2022/07/07 10:25:02;;;;;;;3.73;2.43;;;19.90;57.10;;;;;;4993896;28;20611;-60
2022/07/07 10:27:29;;;;;;;3.13;2.07;;;20.20;59.70;;;;;;4970443;28;22328;-60
2022/07/07 10:29:55;;;;;;;5.90;2.00;;;20.60;59.20;;;;;;4967219;28;20498;-60
2022/07/07 10:32:41;;;;;;;4.47;2.30;;;20.90;59.60;;;;;;4981679;28;20471;-60
2022/07/07 10:35:15;;;;;;;5.20;2.00;;;21.30;57.50;;;;;;4978129;28;21012;-60
2022/07/07 10:37:49;;;;;;;5.03;1.60;;;21.40;56.30;;;;;;4975112;28;20565;-60
2022/07/07 10:40:24;;;;;;;2.53;2.10;;;21.60;54.80;;;;;;4977731;28;20456;-60
2022/07/07 10:43:13;;;;;;;3.53;2.00;;;21.60;53.40;;;;;;4970904;28;20456;-61
2022/07/07 10:45:45;;;;;;;3.13;1.70;;;21.50;54.60;;;;;;4962037;28;20572;-56
2022/07/07 10:48:43;;;;;;;3.53;1.90;;;21.40;53.10;;;;;;4972602;28;20463;-60
2022/07/07 10:51:22;;;;;;;5.43;1.80;;;21.20;54.20;;;;;;4971271;28;21024;-57
2022/07/07 10:53:55;;;;;;;2.80;1.87;;;21.00;53.80;;;;;;4978563;28;20454;-60
2022/07/07 10:56:21;;;;;;;5.60;2.23;;;21.00;53.80;;;;;;4980061;28;20429;-60
2022/07/07 10:58:56;;;;;;;2.80;1.87;;;20.90;52.30;;;;;;4982921;28;22176;-59
2022/07/07 11:01:27;;;;;;;8.73;2.13;;;20.80;53.10;;;;;;4982585;28;20184;-60
2022/07/07 11:03:52;;;;;;;4.47;2.33;;;20.90;54.00;;;;;;4979767;28;20475;-60
2022/07/07 11:06:19;;;;;;;3.60;1.77;;;20.90;54.30;;;;;;4988117;28;20428;-59
2022/07/07 11:08:59;;;;;;;1.77;1.57;;;21.00;55.20;;;;;;4983173;28;20178;-60
2022/07/07 11:11:25;;;;;;;4.20;1.80;;;21.00;53.20;;;;;;4986765;28;20438;-60
2022/07/07 11:14:04;;;;;;;3.33;1.50;;;20.80;53.40;;;;;;4981247;28;20452;-60
2022/07/07 11:16:30;;;;;;;6.63;1.90;;;20.50;53.70;;;;;;4987761;28;20181;-61
2022/07/07 11:18:59;;;;;;;4.43;1.60;;;20.30;54.00;;;;;;4982509;28;20448;-61
2022/07/07 11:21:45;;;;;;;3.40;2.20;;;20.10;54.40;;;;;;4978335;28;20220;-60
2022/07/07 11:24:19;;;;;;;2.50;1.90;;;20.00;55.00;;;;;;4978065;28;22108;-60
2022/07/07 11:26:59;;;;;;;7.70;2.20;;;19.90;55.10;;;;;;4981069;28;20427;-61
2022/07/07 11:29:25;;;;;;;6.10;2.10;;;20.00;56.30;;;;;;4989249;28;20964;-60
2022/07/07 11:32:00;;;;;;;5.10;2.30;;;20.00;57.00;;;;;;4972360;28;20443;-59
2022/07/07 11:34:25;;;;;;;3.07;1.90;;;20.00;56.70;;;;;;4976446;28;20582;-61
2022/07/07 11:36:52;;;;;;;2.53;1.77;;;20.00;56.20;;;;;;4979940;28;20570;-62
2022/07/07 11:39:18;;;;;;;4.20;1.73;;;19.90;56.50;;;;;;4980890;28;21219;-56
2022/07/07 11:41:45;;;;;;;2.50;1.90;;;19.80;57.00;;;;;;4979485;28;20604;-61
2022/07/07 11:44:37;;;;;;;3.40;1.80;;;19.70;56.20;;;;;;4982360;28;20204;-62
2022/07/07 11:47:02;;;;;;;1.93;1.73;;;19.60;57.20;;;;;;4980868;28;20440;-61
2022/07/07 11:49:28;;;;;;;5.27;1.97;;;19.50;56.60;;;;;;4989814;28;21114;-61
2022/07/07 11:51:54;;;;;;;3.50;2.00;;;19.50;56.70;;;;;;4992246;28;20173;-61
2022/07/07 11:54:19;;;;;;;3.73;1.90;;;19.40;56.50;;;;;;4981202;28;20742;-61
2022/07/07 11:56:45;;;;;;;3.00;2.17;;;19.30;56.70;;;;;;4987649;28;20177;-61
2022/07/07 11:59:11;;;;;;;4.13;1.73;;;19.30;58.30;;;;;;4989724;28;20189;-61
2022/07/07 12:01:40;;;;;;;2.93;2.20;;;19.40;58.90;;;;;;4989841;28;20219;-61
2022/07/07 12:04:13;;;;;;;1.70;1.60;;;19.50;58.00;;;;;;4980209;28;20502;-61
2022/07/07 12:06:39;;;;;;;7.50;2.20;;;19.60;58.70;;;;;;4986094;28;20519;-61
2022/07/07 12:09:05;;;;;;;3.07;1.70;;;19.70;58.10;;;;;;4988763;28;20543;-61
2022/07/07 12:11:31;;;;;;;3.00;1.90;;;19.80;58.30;;;;;;4981772;28;20177;-61
2022/07/07 12:13:57;;;;;;;7.20;2.10;;;20.10;58.40;;;;;;4986323;28;20208;-61
2022/07/07 12:16:23;;;;;;;5.17;1.87;;;20.60;57.70;;;;;;4990915;28;20988;-61
2022/07/07 12:18:49;;;;;;;5.07;1.87;;;21.10;57.80;;;;;;4983223;28;20436;-61
2022/07/07 12:21:21;;;;;;;3.73;1.50;;;21.70;56.20;;;;;;4987377;28;20245;-61
2022/07/07 12:23:52;;;;;;;4.77;2.10;;;22.00;53.90;;;;;;4989012;28;20563;-61
2022/07/07 12:26:26;;;;;;;2.40;2.00;;;21.90;52.80;;;;;;4989586;28;20437;-61
2022/07/07 12:28:58;;;;;;;2.60;1.67;;;21.70;52.60;;;;;;4977656;28;20444;-61
2022/07/07 12:31:24;;;;;;;3.47;1.40;;;21.40;54.20;;;;;;4980959;28;20483;-61
2022/07/07 12:33:50;;;;;;;3.90;1.60;;;21.20;53.60;;;;;;4987947;28;20856;-61
2022/07/07 12:36:25;;;;;;;5.30;1.77;;;21.00;53.60;;;;;;4982324;28;20436;-60
2022/07/07 12:38:59;;;;;;;6.63;1.80;;;20.90;52.60;;;;;;5003489;28;20180;-61
2022/07/07 12:41:32;;;;;;;4.50;1.47;;;20.70;53.00;;;;;;4983660;28;20444;-60
2022/07/07 12:44:10;;;;;;;4.77;1.97;;;20.70;52.80;;;;;;4986766;28;20480;-61
2022/07/07 12:46:36;;;;;;;1.80;1.50;;;20.70;53.30;;;;;;4985854;28;21009;-61
2022/07/07 12:49:03;;;;;;;5.07;2.00;;;20.80;53.50;;;;;;4984867;28;20444;-61